createdAt,value
2022-09-25T00:01:19.664Z,7.40
2022-09-25T00:03:47.351Z,11.60
2022-09-25T00:06:17.571Z,11.27
2022-09-25T00:08:46.286Z,14.13
2022-09-25T00:11:16.633Z,19.95
2022-09-25T00:13:44.955Z,19.42
2022-09-25T00:16:16.563Z,18.92
2022-09-25T00:19:02.109Z,16.40
2022-09-25T00:21:31.379Z,13.43
2022-09-25T00:24:01.512Z,11.60
2022-09-25T00:26:31.234Z,16.27
2022-09-25T00:29:01.408Z,11.15
2022-09-25T00:31:29.889Z,15.40
2022-09-25T00:34:02.547Z,9.25
2022-09-25T00:36:30.773Z,13.05
2022-09-25T00:38:58.552Z,8.77
2022-09-25T00:41:27.863Z,16.27
2022-09-25T00:43:57.458Z,12.13
2022-09-25T00:46:29.050Z,11.85
2022-09-25T00:49:00.662Z,18.27
2022-09-25T00:51:55.111Z,10.43
2022-09-25T00:54:31.502Z,13.90
2022-09-25T00:57:02.204Z,11.13
2022-09-25T00:59:34.250Z,6.55
2022-09-25T01:02:01.867Z,11.07
2022-09-25T01:04:33.746Z,8.82
2022-09-25T01:07:02.246Z,7.85
2022-09-25T01:09:29.943Z,9.95
2022-09-25T01:11:57.432Z,13.43
2022-09-25T01:14:26.829Z,11.43
2022-09-25T01:17:10.277Z,10.20
2022-09-25T01:19:48.429Z,7.07
2022-09-25T01:22:34.596Z,13.50
2022-09-25T01:25:05.062Z,7.82
2022-09-25T01:27:41.242Z,9.15
2022-09-25T01:30:11.269Z,9.00
2022-09-25T01:33:19.197Z,10.80
2022-09-25T01:36:02.871Z,9.63
2022-09-25T01:38:39.958Z,7.85
2022-09-25T01:41:37.836Z,13.07
2022-09-25T01:44:13.886Z,10.05
2022-09-25T01:46:50.042Z,8.77
2022-09-25T01:49:29.319Z,8.20
2022-09-25T01:51:58.603Z,9.00
2022-09-25T01:54:40.028Z,9.27
2022-09-25T01:57:07.487Z,9.82
2022-09-25T01:59:48.201Z,7.75
2022-09-25T02:02:21.187Z,12.35
2022-09-25T02:05:03.724Z,11.55
2022-09-25T02:07:36.234Z,12.90
2022-09-25T02:10:13.746Z,9.93
2022-09-25T02:12:52.319Z,12.43
2022-09-25T02:15:29.975Z,8.65
2022-09-25T02:18:20.330Z,9.05
2022-09-25T02:20:51.984Z,9.25
2022-09-25T02:23:24.570Z,7.07
2022-09-25T02:26:06.579Z,8.68
2022-09-25T02:28:34.421Z,6.57
2022-09-25T02:31:04.879Z,6.78
2022-09-25T02:33:32.403Z,8.50
2022-09-25T02:36:01.798Z,6.82
2022-09-25T02:38:30.141Z,8.80
2022-09-25T02:41:07.314Z,10.18
2022-09-25T02:43:54.581Z,8.73
2022-09-25T02:46:44.280Z,6.38
2022-09-25T02:49:27.494Z,10.82
2022-09-25T02:52:07.106Z,10.88
2022-09-25T02:55:04.148Z,6.32
2022-09-25T02:57:57.988Z,5.53
2022-09-25T03:00:25.534Z,5.40
2022-09-25T03:02:56.510Z,6.60
2022-09-25T03:05:25.618Z,7.97
2022-09-25T03:08:12.461Z,6.43
2022-09-25T03:10:40.056Z,8.77
2022-09-25T03:13:23.268Z,9.32
2022-09-25T03:15:58.968Z,10.27
2022-09-25T03:18:28.446Z,8.70
2022-09-25T03:20:56.216Z,8.55
2022-09-25T03:23:23.918Z,8.57
2022-09-25T03:25:54.728Z,7.32
2022-09-25T03:28:23.352Z,7.82
2022-09-25T03:31:17.013Z,6.28
2022-09-25T03:33:45.714Z,8.32
2022-09-25T03:36:18.431Z,12.50
2022-09-25T03:38:48.240Z,11.85
2022-09-25T03:41:21.307Z,11.48
2022-09-25T03:43:51.963Z,7.72
2022-09-25T03:46:23.201Z,11.65
2022-09-25T03:48:52.108Z,6.97
2022-09-25T03:51:20.233Z,6.57
2022-09-25T03:53:48.815Z,7.15
2022-09-25T03:56:23.084Z,4.55
2022-09-25T03:58:51.718Z,9.80
2022-09-25T04:01:20.040Z,10.10
2022-09-25T04:03:48.173Z,9.95
2022-09-25T04:06:18.937Z,8.05
2022-09-25T04:08:47.870Z,7.50
2022-09-25T04:11:20.510Z,10.60
2022-09-25T04:13:48.583Z,16.13
2022-09-25T04:16:19.414Z,9.68
2022-09-25T04:18:47.087Z,6.97
2022-09-25T04:21:16.286Z,12.63
2022-09-25T04:24:04.089Z,8.57
2022-09-25T04:26:32.303Z,10.63
2022-09-25T04:29:01.418Z,8.80
2022-09-25T04:31:29.983Z,9.07
2022-09-25T04:33:56.591Z,9.23
2022-09-25T04:36:24.100Z,11.43
2022-09-25T04:38:51.833Z,6.53
2022-09-25T04:41:20.107Z,7.55
2022-09-25T04:43:48.355Z,4.47
2022-09-25T04:46:21.833Z,7.40
2022-09-25T04:48:50.613Z,9.52
2022-09-25T04:51:18.130Z,7.25
2022-09-25T04:53:46.694Z,8.13
2022-09-25T04:56:16.334Z,13.85
2022-09-25T04:58:48.677Z,7.88
2022-09-25T05:01:17.739Z,8.50
2022-09-25T05:03:45.336Z,8.25
2022-09-25T05:06:12.951Z,10.23
2022-09-25T05:08:40.423Z,5.85
2022-09-25T05:11:08.187Z,7.03
2022-09-25T05:13:35.770Z,6.28
2022-09-25T05:16:03.318Z,5.63
2022-09-25T05:18:30.829Z,10.20
2022-09-25T05:20:58.334Z,5.60
2022-09-25T05:23:25.886Z,9.80
2022-09-25T05:25:58.050Z,6.65
2022-09-25T05:28:25.787Z,8.20
2022-09-25T05:30:53.473Z,7.10
2022-09-25T05:33:21.116Z,10.15
2022-09-25T05:35:49.500Z,9.65
2022-09-25T05:38:16.956Z,8.63
2022-09-25T05:40:44.551Z,7.75
2022-09-25T05:43:12.482Z,11.07
2022-09-25T05:45:40.027Z,9.43
2022-09-25T05:48:09.463Z,5.25
2022-09-25T05:50:37.555Z,5.53
2022-09-25T05:53:06.347Z,7.63
2022-09-25T05:55:33.912Z,12.80
2022-09-25T05:58:05.366Z,10.80
2022-09-25T06:00:33.743Z,10.43
2022-09-25T06:03:02.566Z,8.77
2022-09-25T06:05:30.322Z,10.23
2022-09-25T06:07:57.837Z,6.57
2022-09-25T06:10:26.768Z,7.55
2022-09-25T06:12:59.672Z,10.20
2022-09-25T06:15:28.252Z,9.73
2022-09-25T06:17:56.998Z,7.60
2022-09-25T06:20:25.349Z,6.07
2022-09-25T06:22:56.884Z,8.80
2022-09-25T06:25:26.468Z,6.78
2022-09-25T06:28:00.233Z,11.48
2022-09-25T06:30:34.088Z,6.28
2022-09-25T06:33:12.666Z,9.35
2022-09-25T06:35:45.239Z,9.60
2022-09-25T06:38:13.767Z,9.02
2022-09-25T06:40:42.020Z,9.40
2022-09-25T06:43:15.363Z,10.45
2022-09-25T06:45:44.222Z,11.57
2022-09-25T06:48:15.742Z,13.55
2022-09-25T06:50:49.658Z,7.57
2022-09-25T06:53:18.982Z,8.07
2022-09-25T06:55:46.902Z,7.63
2022-09-25T06:58:17.563Z,9.45
2022-09-25T07:00:52.505Z,12.20
2022-09-25T07:03:37.524Z,7.38
2022-09-25T07:06:07.114Z,13.30
2022-09-25T07:08:35.150Z,7.30
2022-09-25T07:11:02.716Z,9.13
2022-09-25T07:13:33.451Z,7.82
2022-09-25T07:16:03.010Z,7.32
2022-09-25T07:18:30.942Z,11.68
2022-09-25T07:21:03.893Z,6.43
2022-09-25T07:23:33.417Z,6.07
2022-09-25T07:26:09.292Z,8.15
2022-09-25T07:28:37.967Z,8.38
2022-09-25T07:31:30.042Z,3.63
2022-09-25T07:33:59.880Z,3.95
2022-09-25T07:36:27.470Z,6.70
2022-09-25T07:38:55.222Z,5.03
2022-09-25T07:41:23.881Z,5.03
2022-09-25T07:44:17.630Z,4.97
2022-09-25T07:46:44.684Z,3.67
2022-09-25T07:49:12.887Z,3.28
2022-09-25T07:51:40.460Z,5.03
2022-09-25T07:54:08.271Z,5.72
2022-09-25T07:56:38.032Z,3.38
2022-09-25T07:59:05.638Z,2.40
2022-09-25T08:01:33.330Z,2.13
2022-09-25T08:04:00.819Z,5.85
2022-09-25T08:06:28.329Z,6.53
2022-09-25T08:08:55.773Z,3.30
2022-09-25T08:11:23.448Z,7.13
2022-09-25T08:13:50.947Z,4.00
2022-09-25T08:16:22.588Z,3.03
2022-09-25T08:18:51.331Z,4.85
2022-09-25T08:21:21.267Z,5.50
2022-09-25T08:23:54.305Z,5.47
2022-09-25T08:26:23.157Z,3.67
2022-09-25T08:28:51.816Z,1.67
2022-09-25T08:31:19.707Z,3.05
2022-09-25T08:33:48.607Z,7.97
2022-09-25T08:36:16.881Z,5.50
2022-09-25T08:38:45.192Z,6.75
2022-09-25T08:41:23.750Z,5.30
2022-09-25T08:44:25.298Z,4.18
2022-09-25T08:47:29.918Z,7.40
2022-09-25T08:50:17.510Z,4.28
2022-09-25T08:53:01.068Z,4.07
2022-09-25T08:55:52.694Z,8.35
2022-09-25T08:58:27.059Z,1.97
2022-09-25T09:00:57.074Z,3.65
2022-09-25T09:03:26.173Z,6.93
2022-09-25T09:06:02.228Z,2.10
2022-09-25T09:08:32.032Z,5.10
2022-09-25T09:11:04.327Z,1.95
2022-09-25T09:13:37.972Z,4.43
2022-09-25T09:16:14.844Z,1.83
2022-09-25T09:18:44.017Z,3.53
2022-09-25T09:21:23.730Z,3.88
2022-09-25T09:24:08.468Z,4.57
2022-09-25T09:26:45.085Z,4.30
2022-09-25T09:29:39.237Z,7.82
2022-09-25T09:32:40.841Z,4.32
2022-09-25T09:35:32.808Z,5.72
2022-09-25T09:38:42.361Z,2.33
2022-09-25T09:41:54.749Z,4.13
2022-09-25T09:44:36.037Z,4.43
2022-09-25T09:47:27.877Z,7.03
2022-09-25T09:50:22.925Z,6.57
2022-09-25T09:52:58.382Z,10.90
2022-09-25T09:55:34.433Z,4.00
2022-09-25T09:58:08.583Z,4.78
2022-09-25T10:00:37.131Z,5.00
2022-09-25T10:03:13.128Z,4.20
2022-09-25T10:05:43.184Z,3.38
2022-09-25T10:08:11.466Z,2.63
2022-09-25T10:10:42.688Z,3.50
2022-09-25T10:13:15.225Z,4.00
2022-09-25T10:15:53.413Z,2.38
2022-09-25T10:18:23.757Z,2.05
2022-09-25T10:21:03.465Z,3.13
2022-09-25T10:23:41.821Z,4.22
2022-09-25T10:26:25.827Z,5.30
2022-09-25T10:28:53.757Z,1.67
2022-09-25T10:31:21.995Z,0.35
2022-09-25T10:34:16.426Z,2.58
2022-09-25T10:36:49.371Z,3.47
2022-09-25T10:39:50.419Z,1.17
2022-09-25T10:42:36.684Z,5.50
2022-09-25T10:45:38.642Z,1.60
2022-09-25T10:48:49.406Z,1.27
2022-09-25T10:51:19.947Z,0.93
2022-09-25T10:54:08.292Z,3.08
2022-09-25T10:56:36.062Z,3.78
2022-09-25T10:59:04.466Z,2.30
2022-09-25T11:01:38.070Z,1.85
2022-09-25T11:04:17.525Z,3.72
2022-09-25T11:06:54.097Z,3.20
2022-09-25T11:09:25.614Z,0.80
2022-09-25T11:12:04.881Z,2.15
2022-09-25T11:14:35.093Z,3.67
2022-09-25T11:17:06.859Z,2.83
2022-09-25T11:19:37.347Z,2.22
2022-09-25T11:22:10.883Z,1.83
2022-09-25T11:25:26.736Z,2.85
2022-09-25T11:27:59.538Z,1.92
2022-09-25T11:30:33.459Z,5.28
2022-09-25T11:33:27.051Z,2.50
2022-09-25T11:36:23.376Z,1.92
2022-09-25T11:39:13.978Z,1.17
2022-09-25T11:42:00.304Z,0.93
2022-09-25T11:44:57.960Z,2.38
2022-09-25T11:47:33.242Z,0.60
2022-09-25T11:50:02.781Z,3.13
2022-09-25T11:52:33.497Z,3.53
2022-09-25T11:55:22.019Z,2.00
2022-09-25T11:57:52.872Z,3.47
2022-09-25T12:00:29.417Z,0.77
2022-09-25T12:03:07.865Z,0.80
2022-09-25T12:05:49.280Z,3.20
2022-09-25T12:08:27.159Z,2.80
2022-09-25T12:11:17.242Z,0.88
2022-09-25T12:14:16.627Z,2.38
2022-09-25T12:17:35.958Z,1.27
2022-09-25T12:20:27.487Z,0.88
2022-09-25T12:23:14.324Z,1.33
2022-09-25T12:26:08.089Z,3.33
2022-09-25T12:28:44.237Z,4.78
2022-09-25T12:31:40.899Z,2.38
2022-09-25T12:34:33.097Z,2.28
2022-09-25T12:37:28.673Z,1.95
2022-09-25T12:40:12.859Z,6.53
2022-09-25T12:42:51.746Z,1.30
2022-09-25T12:45:42.128Z,2.97
2022-09-25T12:48:18.928Z,0.65
2022-09-25T12:53:45.633Z,1.20
2022-09-25T12:56:19.087Z,2.50
2022-09-25T12:59:13.685Z,1.30
2022-09-25T13:02:03.179Z,2.72
2022-09-25T13:05:04.602Z,1.30
2022-09-25T13:07:54.220Z,4.38
2022-09-25T13:11:03.465Z,1.30
2022-09-25T13:13:38.842Z,0.93
2022-09-25T13:16:06.808Z,1.75
2022-09-25T13:18:36.689Z,2.03
2022-09-25T13:21:06.923Z,4.03
2022-09-25T13:23:42.309Z,4.82
2022-09-25T13:26:13.972Z,1.75
2022-09-25T13:28:56.535Z,1.90
2022-09-25T13:31:30.684Z,2.20
2022-09-25T13:34:06.215Z,0.47
2022-09-25T13:36:38.738Z,2.05
2022-09-25T13:39:35.733Z,2.08
2022-09-25T13:42:06.375Z,2.15
2022-09-25T13:44:43.436Z,0.88
2022-09-25T13:47:23.214Z,4.03
2022-09-25T13:50:13.259Z,1.70
2022-09-25T13:53:14.850Z,1.33
2022-09-25T13:56:03.251Z,2.20
2022-09-25T13:58:32.866Z,0.95
2022-09-25T14:01:19.780Z,0.68
2022-09-25T14:03:49.973Z,0.73
2022-09-25T14:06:23.823Z,5.75
2022-09-25T14:08:55.174Z,1.70
2022-09-25T14:11:31.410Z,10.75
2022-09-25T14:14:01.291Z,0.70
2022-09-25T14:16:35.121Z,1.85
2022-09-25T14:19:04.275Z,4.00
2022-09-25T14:21:33.640Z,9.32
2022-09-25T14:24:33.479Z,2.00
2022-09-25T14:27:02.854Z,0.93
2022-09-25T14:29:41.025Z,0.73
2022-09-25T14:32:54.143Z,3.50
2022-09-25T14:35:36.407Z,2.35
2022-09-25T14:38:41.021Z,2.63
2022-09-25T14:41:43.984Z,0.85
2022-09-25T14:44:36.361Z,5.50
2022-09-25T14:47:05.409Z,3.33
2022-09-25T14:49:37.994Z,2.28
2022-09-25T14:52:14.227Z,0.93
2022-09-25T14:54:46.463Z,0.98
2022-09-25T14:59:52.928Z,3.13
2022-09-25T15:02:33.878Z,3.65
2022-09-25T15:05:31.542Z,2.38
2022-09-25T15:08:02.099Z,2.30
2022-09-25T15:10:29.673Z,3.60
2022-09-25T15:13:09.743Z,4.07
2022-09-25T15:15:40.060Z,4.75
2022-09-25T15:18:13.875Z,4.20
2022-09-25T15:20:48.708Z,4.65
2022-09-25T15:23:22.812Z,1.45
2022-09-25T15:25:58.871Z,2.88
2022-09-25T15:28:28.407Z,1.50
2022-09-25T15:31:01.341Z,0.93
2022-09-25T15:33:34.031Z,1.65
2022-09-25T15:36:09.502Z,0.93
2022-09-25T15:38:39.669Z,1.85
2022-09-25T15:41:15.788Z,1.20
2022-09-25T15:43:43.479Z,2.58
2022-09-25T15:46:11.037Z,2.72
2022-09-25T15:48:41.411Z,3.55
2022-09-25T15:51:24.060Z,3.08
2022-09-25T15:54:37.674Z,1.38
2022-09-25T15:57:13.307Z,2.15
2022-09-25T15:59:59.333Z,0.88
2022-09-25T16:02:51.192Z,1.48
2022-09-25T16:05:23.613Z,4.65
2022-09-25T16:07:51.193Z,1.15
2022-09-25T16:10:18.627Z,1.60
2022-09-25T16:12:50.707Z,1.23
2022-09-25T16:15:26.958Z,3.20
2022-09-25T16:18:05.998Z,2.28
2022-09-25T16:20:42.621Z,7.28
2022-09-25T16:23:29.927Z,2.67
2022-09-25T16:25:58.608Z,11.52
2022-09-25T16:28:30.091Z,2.38
2022-09-25T16:31:01.962Z,19.45
2022-09-25T16:33:33.816Z,4.03
2022-09-25T16:36:18.161Z,62.35
2022-09-25T16:39:04.109Z,70.97
2022-09-25T16:41:32.949Z,28.83
2022-09-25T16:44:21.240Z,7.00
2022-09-25T16:46:57.908Z,2.95
2022-09-25T16:49:25.561Z,3.08
2022-09-25T16:51:55.127Z,3.55
2022-09-25T16:54:31.723Z,2.67
2022-09-25T16:57:00.271Z,6.03
2022-09-25T16:59:29.197Z,5.35
2022-09-25T17:02:00.220Z,4.05
2022-09-25T17:04:30.885Z,11.73
2022-09-25T17:06:59.079Z,8.13
2022-09-25T17:09:28.589Z,5.13
2022-09-25T17:12:05.054Z,3.65
2022-09-25T17:14:32.724Z,5.32
2022-09-25T17:17:00.387Z,4.70
2022-09-25T17:19:28.225Z,5.38
2022-09-25T17:21:56.085Z,3.58
2022-09-25T17:24:26.675Z,2.60
2022-09-25T17:26:55.057Z,2.25
2022-09-25T17:29:23.374Z,2.53
2022-09-25T17:31:50.846Z,3.70
2022-09-25T17:34:25.003Z,7.07
2022-09-25T17:36:53.227Z,2.92
2022-09-25T17:39:20.804Z,6.35
2022-09-25T17:41:48.791Z,2.47
2022-09-25T17:44:22.142Z,4.55
2022-09-25T17:46:50.967Z,4.65
2022-09-25T17:49:19.004Z,4.85
2022-09-25T17:51:46.984Z,6.35
2022-09-25T17:54:14.534Z,6.50
2022-09-25T17:56:45.053Z,3.75
2022-09-25T17:59:13.835Z,6.47
2022-09-25T18:01:41.646Z,4.80
2022-09-25T18:04:22.141Z,4.90
2022-09-25T18:06:50.908Z,4.20
2022-09-25T18:09:19.047Z,4.22
2022-09-25T18:11:46.542Z,4.40
2022-09-25T18:14:17.282Z,3.40
2022-09-25T18:16:46.338Z,2.42
2022-09-25T18:19:34.395Z,6.30
2022-09-25T18:22:21.483Z,3.58
2022-09-25T18:24:55.954Z,6.40
2022-09-25T18:27:26.148Z,13.65
2022-09-25T18:29:53.803Z,5.38
2022-09-25T18:32:22.100Z,8.52
2022-09-25T18:34:49.618Z,2.55
2022-09-25T18:37:17.193Z,9.15
2022-09-25T18:39:46.079Z,6.25
2022-09-25T18:42:13.559Z,2.42
2022-09-25T18:44:42.962Z,9.10
2022-09-25T18:47:11.714Z,3.05
2022-09-25T18:49:39.238Z,7.40
2022-09-25T18:52:07.439Z,3.60
2022-09-25T18:54:35.119Z,3.25
2022-09-25T18:57:02.665Z,5.93
2022-09-25T18:59:30.430Z,3.95
2022-09-25T19:01:58.337Z,4.32
2022-09-25T19:04:26.366Z,6.75
2022-09-25T19:06:53.950Z,2.67
2022-09-25T19:09:24.200Z,10.00
2022-09-25T19:11:52.431Z,3.53
2022-09-25T19:14:20.242Z,4.63
2022-09-25T19:16:48.189Z,2.95
2022-09-25T19:19:15.659Z,3.58
2022-09-25T19:21:44.665Z,3.90
2022-09-25T19:24:12.809Z,2.38
2022-09-25T19:26:41.592Z,5.88
2022-09-25T19:29:09.369Z,3.47
2022-09-25T19:31:37.403Z,4.35
2022-09-25T19:34:05.083Z,6.13
2022-09-25T19:36:35.166Z,4.45
2022-09-25T19:39:03.550Z,3.20
2022-09-25T19:41:36.502Z,3.80
2022-09-25T19:44:13.313Z,3.88
2022-09-25T19:46:45.936Z,7.15
2022-09-25T19:49:15.359Z,4.15
2022-09-25T19:51:44.350Z,3.05
2022-09-25T19:54:14.451Z,4.70
2022-09-25T19:56:42.888Z,5.22
2022-09-25T19:59:14.687Z,3.92
2022-09-25T20:01:43.791Z,6.10
2022-09-25T20:04:17.975Z,3.83
2022-09-25T20:06:46.143Z,5.95
2022-09-25T20:09:17.178Z,4.50
2022-09-25T20:11:45.746Z,4.93
2022-09-25T20:14:14.020Z,3.05
2022-09-25T20:16:41.901Z,6.20
2022-09-25T20:19:10.807Z,5.63
2022-09-25T20:21:41.342Z,6.25
2022-09-25T20:24:10.438Z,5.97
2022-09-25T20:26:38.368Z,7.57
2022-09-25T20:29:10.465Z,3.80
2022-09-25T20:31:39.356Z,3.05
2022-09-25T20:34:07.079Z,7.65
2022-09-25T20:36:36.186Z,5.72
2022-09-25T20:39:03.693Z,7.28
2022-09-25T20:41:31.155Z,3.72
2022-09-25T20:43:59.315Z,9.30
2022-09-25T20:46:28.115Z,6.10
2022-09-25T20:48:58.107Z,3.88
2022-09-25T20:51:43.747Z,3.47
2022-09-25T20:54:11.378Z,4.18
2022-09-25T20:56:43.569Z,4.07
2022-09-25T20:59:11.962Z,5.55
2022-09-25T21:01:41.038Z,4.97
2022-09-25T21:04:10.009Z,4.10
2022-09-25T21:06:40.474Z,10.25
2022-09-25T21:09:28.953Z,5.72
2022-09-25T21:11:57.086Z,7.90
2022-09-25T21:14:29.268Z,5.80
2022-09-25T21:16:57.223Z,14.15
2022-09-25T21:19:24.826Z,2.33
2022-09-25T21:21:52.726Z,9.77
2022-09-25T21:24:22.095Z,3.42
2022-09-25T21:26:49.880Z,3.05
2022-09-25T21:29:18.222Z,7.15
2022-09-25T21:31:49.946Z,2.50
2022-09-25T21:34:19.433Z,6.18
2022-09-25T21:36:47.158Z,3.50
2022-09-25T21:39:15.439Z,4.68
2022-09-25T21:41:43.009Z,2.97
2022-09-25T21:44:14.965Z,4.15
2022-09-25T21:46:43.877Z,3.60
2022-09-25T21:49:17.726Z,2.22
2022-09-25T21:51:47.716Z,3.60
2022-09-25T21:54:16.645Z,2.67
2022-09-25T21:56:45.293Z,2.53
2022-09-25T21:59:13.397Z,4.32
2022-09-25T22:01:41.481Z,3.72
2022-09-25T22:04:13.091Z,3.30
2022-09-25T22:06:43.689Z,1.90
2022-09-25T22:09:23.192Z,5.28
2022-09-25T22:11:51.514Z,5.72
2022-09-25T22:14:20.706Z,3.72
2022-09-25T22:16:50.829Z,3.28
2022-09-25T22:19:28.090Z,2.10
2022-09-25T22:21:57.881Z,5.93
2022-09-25T22:24:25.799Z,3.95
2022-09-25T22:26:54.831Z,1.85
2022-09-25T22:29:23.046Z,6.60
2022-09-25T22:31:50.706Z,4.07
2022-09-25T22:34:20.195Z,3.85
2022-09-25T22:36:48.534Z,3.45
2022-09-25T22:39:18.567Z,3.85
2022-09-25T22:41:50.220Z,6.25
2022-09-25T22:44:18.082Z,1.80
2022-09-25T22:46:45.796Z,6.10
2022-09-25T22:49:13.616Z,3.80
2022-09-25T22:51:41.278Z,4.93
2022-09-25T22:54:08.756Z,1.90
2022-09-25T22:56:36.748Z,3.35
2022-09-25T22:59:11.155Z,5.32
2022-09-25T23:01:47.262Z,3.65
2022-09-25T23:04:18.760Z,10.82
2022-09-25T23:06:46.615Z,1.33
2022-09-25T23:09:19.900Z,2.92
2022-09-25T23:11:47.648Z,4.50
2022-09-25T23:14:20.859Z,1.52
2022-09-25T23:16:50.306Z,2.40
2022-09-25T23:19:19.145Z,4.60
2022-09-25T23:21:47.175Z,7.15
2022-09-25T23:24:16.955Z,5.18
2022-09-25T23:26:45.438Z,4.75
2022-09-25T23:29:14.995Z,3.47
2022-09-25T23:31:43.007Z,4.43
2022-09-25T23:34:10.640Z,4.97
2022-09-25T23:36:39.046Z,6.22
2022-09-25T23:39:08.594Z,3.75
2022-09-25T23:41:39.646Z,3.55
2022-09-25T23:44:09.492Z,2.95
2022-09-25T23:46:42.473Z,6.82
2022-09-25T23:49:11.791Z,1.40
2022-09-25T23:51:40.208Z,3.47
2022-09-25T23:54:07.806Z,2.88
2022-09-25T23:56:36.032Z,6.22
2022-09-25T23:59:04.924Z,1.58
